»·PEaware :: SWA1830 KRNO-KLAS

SWA1830 :: KRNO-KLAS

FLIGHT INFORMATION

Flight Status: Arrived
Operator:
Southwest Airlines
More flights by this operator :: More flights under this callsign
Pilot: Anonymous 17611 (17611)
Aircraft: BOEING 737-800
(B738)
More flights by this aircraft type
Origin: KRNO Reno/Tahoe Intl
United States
Destination: KLAS Harry Reid Intl
United States
More flights between these airports :: More routes between these airports
Route: ZEFFR6 PESKE LIDAT BASIC COKTL2
File this flight plan on PilotEdge
Remarks:
Altitude:
(Current/Filed)
29,000ft
Speed:
(Current/Filed)
457kts
Departed: 23-Sep-22 03:34 PM
Arrived: 23-Sep-22 04:26 PM
Distance/Time
Traveled:
300nm/0:52
Distance/Time
To Go:
Arrived

Flight Plot

Page will automatically refresh every two minutes.

Flight plan parsing failed; only flown route is shown


Map Options




Map Legend


Flown Route
Filed Route
Departure Airport
Arrival Airport
Navaid (VOR, NDB)
Fix

Horizontal Profiles

Position Reports

Time Latitude Longitude Heading Altitude Ground
Speed
23-Sep-22 15:15 39.504286 -119.773763 358 4430ft 0kts
23-Sep-22 15:16 39.504286 -119.773763 358 4430ft 0kts
23-Sep-22 15:17 39.504286 -119.773763 358 4430ft 0kts
23-Sep-22 15:18 39.504286 -119.773763 358 4430ft 0kts
23-Sep-22 15:19 39.504286 -119.773763 358 4430ft 0kts
23-Sep-22 15:20 39.504286 -119.773763 358 4430ft 0kts
23-Sep-22 15:21 39.504286 -119.773763 358 4430ft 0kts
23-Sep-22 15:22 39.504286 -119.773763 358 4430ft 0kts
23-Sep-22 15:23 39.504286 -119.773763 358 4430ft 0kts
23-Sep-22 15:24 39.504286 -119.773763 358 4430ft 0kts
23-Sep-22 15:25 39.504100 -119.773762 1 4422ft 2kts
23-Sep-22 15:26 39.503729 -119.774070 88 4420ft 0kts
23-Sep-22 15:27 39.503729 -119.774070 88 4420ft 0kts
23-Sep-22 15:28 39.503740 -119.772645 90 4421ft 12kts
23-Sep-22 15:29 39.504249 -119.771525 0 4419ft 13kts
23-Sep-22 15:30 39.510382 -119.771501 0 4423ft 24kts
23-Sep-22 15:31 39.513740 -119.770481 88 4423ft 0kts
23-Sep-22 15:32 39.513285 -119.769244 179 4423ft 14kts
23-Sep-22 15:33 39.476665 -119.769466 179 5395ft 189kts
23-Sep-22 15:34 39.419149 -119.769142 180 7565ft 227kts
23-Sep-22 15:35 39.343854 -119.769657 180 9470ft 293kts
23-Sep-22 15:36 39.275047 -119.706426 130 11301ft 355kts
23-Sep-22 15:37 39.207615 -119.607736 132 13794ft 379kts
23-Sep-22 15:38 39.134620 -119.505136 135 16134ft 396kts
23-Sep-22 15:39 39.053487 -119.405739 136 18321ft 412kts
23-Sep-22 15:40 38.969547 -119.301987 136 20183ft 426kts
23-Sep-22 15:41 38.882685 -119.194747 138 21976ft 440kts
23-Sep-22 15:42 38.792903 -119.084292 138 23680ft 453kts
23-Sep-22 15:43 38.704069 -118.967248 135 25086ft 465kts
23-Sep-22 15:44 38.615026 -118.844991 136 26560ft 474kts
23-Sep-22 15:45 38.523684 -118.721280 137 28049ft 479kts
23-Sep-22 15:46 38.432500 -118.598406 138 29157ft 481kts
23-Sep-22 15:47 38.341269 -118.475836 138 29101ft 472kts
23-Sep-22 15:48 38.250713 -118.354759 138 29018ft 472kts
23-Sep-22 15:49 38.160088 -118.234031 138 29017ft 472kts
23-Sep-22 15:50 38.069596 -118.113933 139 29011ft 473kts
23-Sep-22 15:51 37.978463 -117.993447 139 29011ft 472kts
23-Sep-22 15:52 37.887448 -117.873587 139 29007ft 473kts
23-Sep-22 15:53 37.796182 -117.753845 139 29010ft 475kts
23-Sep-22 15:54 37.704295 -117.633731 139 29002ft 474kts
23-Sep-22 15:55 37.612406 -117.514071 140 29013ft 475kts
23-Sep-22 15:56 37.520845 -117.395250 139 28992ft 468kts
23-Sep-22 15:57 37.431124 -117.277669 133 29085ft 469kts
23-Sep-22 15:58 37.361540 -117.136366 125 29073ft 477kts
23-Sep-22 15:59 37.271997 -117.023461 151 29069ft 458kts
23-Sep-22 16:00 37.166105 -116.931927 150 28981ft 466kts
23-Sep-22 16:01 37.059495 -116.840002 150 28988ft 466kts
23-Sep-22 16:02 36.952584 -116.748211 150 28979ft 465kts
23-Sep-22 16:03 36.846030 -116.656962 150 28969ft 463kts
23-Sep-22 16:04 36.740916 -116.567265 150 28956ft 456kts
23-Sep-22 16:05 36.639602 -116.477685 138 27438ft 444kts
23-Sep-22 16:06 36.559204 -116.361362 134 25443ft 439kts
23-Sep-22 16:07 36.479257 -116.248306 133 23378ft 435kts
23-Sep-22 16:08 36.400371 -116.137540 133 21389ft 421kts
23-Sep-22 16:09 36.323672 -116.030002 133 19450ft 411kts
23-Sep-22 16:10 36.252526 -115.930596 133 18786ft 354kts
23-Sep-22 16:11 36.193410 -115.837369 129 17412ft 342kts
23-Sep-22 16:12 36.136270 -115.743675 116 15981ft 343kts
23-Sep-22 16:13 36.102332 -115.633093 112 14582ft 345kts
23-Sep-22 16:14 36.069044 -115.524390 112 13138ft 325kts
23-Sep-22 16:15 36.038224 -115.424900 113 11885ft 299kts
23-Sep-22 16:16 36.013522 -115.323932 95 10756ft 316kts
23-Sep-22 16:17 36.008506 -115.217478 94 9986ft 301kts
23-Sep-22 16:18 36.002931 -115.118837 95 9282ft 282kts
23-Sep-22 16:19 35.998951 -115.023971 90 8173ft 270kts
23-Sep-22 16:20 35.999626 -114.934843 77 6950ft 243kts
23-Sep-22 16:21 36.052011 -114.918212 327 5643ft 221kts
23-Sep-22 16:22 36.073939 -114.984704 271 4244ft 222kts
23-Sep-22 16:23 36.073753 -115.057654 270 3254ft 189kts
23-Sep-22 16:24 36.073708 -115.115958 269 2204ft 157kts
23-Sep-22 16:25 36.074718 -115.150582 309 2134ft 8kts
23-Sep-22 16:26 36.077091 -115.152394 335 2152ft 15kts
23-Sep-22 16:27 36.077929 -115.149421 94 2142ft 16kts
23-Sep-22 16:28 36.079825 -115.148186 72 2129ft 3kts
23-Sep-22 16:29 36.080227 -115.147330 55 2127ft 0kts

Navigation Log

Ident Type
Flight plan parsing failed, navigation log unavailable